CW9968 Weather Reports


Display with metric or nautical units.
time (UTC)temp
F
wind
direction
speed
MPH
gust
MPH
rain 1hr
in
rain 24hr
in
rain mn
in
humidity
%
barometer
mb
20190116034804 28 236 2.0 9.0 0.00 0.00 0.00 92 1020.1
20190116034304 28 233 1.0 5.0 0.00 0.00 0.00 92 1020.1
20190116033804 28 234 2.0 7.0 0.00 0.00 0.00 92 1020.1
20190116033305 28 239 2.0 5.0 0.00 0.00 0.00 92 1020.0
20190116032804 28 244 1.0 7.0 0.00 0.00 0.00 92 1020.1
20190116032304 28 242 2.0 7.0 0.00 0.00 0.00 92 1020.2
20190116031804 28 238 1.0 7.0 0.00 0.00 0.00 92 1020.1
20190116031304 28 256 2.0 6.0 0.00 0.00 0.00 92 1020.1
20190116030804 28 246 2.0 5.0 0.00 0.00 0.00 92 1020.3
20190116030304 28 263 2.0 12.0 0.00 0.00 0.00 92 1020.3
20190116025847 28 257 2.0 7.0 0.00 0.00 0.00 92 1020.1
20190116025306 28 252 1.0 3.0 0.00 0.00 0.00 92 1020.1
20190116024806 28 242 1.0 3.0 0.00 0.00 0.00 92 1020.1
20190116024307 28 240 2.0 6.0 0.00 0.00 0.00 92 1020.0
20190116023806 28 243 3.0 6.0 0.00 0.00 0.00 92 1020.1
20190116023306 27 258 2.0 5.0 0.00 0.00 0.00 92 1020.2
20190116022806 27 237 5.0 13.0 0.00 0.00 0.00 92 1020.1
20190116022306 27 221 2.0 7.0 0.00 0.00 0.00 92 1020.0
20190116021806 27 232 1.0 5.0 0.00 0.00 0.00 92 1020.0
20190116021306 27 227 1.0 7.0 0.00 0.00 0.00 92 1020.0
20190116020806 27 226 1.0 5.0 0.00 0.00 0.00 92 1020.0
20190116020307 27 234 2.0 13.0 0.00 0.00 0.00 92 1020.0
20190116015807 27 257 2.0 5.0 0.00 0.00 0.00 92 1020.0
20190116015306 27 256 0.0 3.0 0.00 0.00 0.00 92 1020.2
20190116014806 27 259 3.0 12.0 0.00 0.00 0.00 92 1020.1
20190116014306 27 264 2.0 3.0 0.00 0.00 0.00 92 1020.1
20190116013806 27 244 2.0 7.0 0.00 0.00 0.00 92 1020.3
20190116013306 27 246 1.0 5.0 0.00 0.00 0.00 92 1020.4
20190116012807 27 247 2.0 5.0 0.00 0.00 0.00 92 1020.4
20190116012307 27 234 2.0 5.0 0.00 0.00 0.00 92 1020.4
20190116011807 27 236 1.0 3.0 0.00 0.00 0.00 92 1020.5
20190116011306 27 237 1.0 6.0 0.00 0.00 0.00 92 1020.5
20190116010806 27 238 2.0 6.0 0.00 0.00 0.00 92 1020.5
20190116010306 27 241 2.0 3.0 0.00 0.00 0.00 92 1020.5
20190116005806 27 230 2.0 6.0 0.00 0.00 0.00 92 1020.5
20190116005306 27 243 1.0 12.0 0.00 0.00 0.00 92 1020.4
20190116004806 27 225 1.0 12.0 0.00 0.00 0.00 92 1020.5
20190116004306 27 245 3.0 6.0 0.00 0.00 0.00 92 1020.5
20190116003807 26 226 3.0 6.0 0.00 0.00 0.00 92 1020.6
20190116003306 26 233 3.0 6.0 0.00 0.00 0.00 92 1020.6
20190116002806 26 238 3.0 7.0 0.00 0.00 0.00 92 1020.6
20190116002307 26 235 3.0 9.0 0.00 0.00 0.00 92 1020.7
20190116001806 26 242 5.0 12.0 0.00 0.00 0.00 92 1020.7
20190116001306 27 229 2.0 7.0 0.00 0.00 0.00 92 1020.6
20190116000807 27 227 2.0 7.0 0.00 0.00 0.00 92 1020.7
20190116000305 27 204 3.0 12.0 0.00 0.00 0.00 92 1020.6
20190115235807 27 230 3.0 10.0 0.00 0.00 0.00 92 1020.5
20190115235306 27 230 4.0 9.0 0.00 0.00 0.00 92 1020.5
20190115234807 27 237 3.0 6.0 0.00 0.00 0.00 92 1020.7
20190115234306 27 218 2.0 6.0 0.00 0.00 0.00 92 1020.8
20190115233806 27 231 1.0 6.0 0.00 0.00 0.00 92 1020.7
20190115233307 27 234 1.0 9.0 0.00 0.00 0.00 92 1020.9
20190115232807 27 251 2.0 9.0 0.00 0.00 0.00 92 1020.8
20190115232306 27 230 3.0 6.0 0.00 0.00 0.00 92 1020.7
20190115231806 27 235 3.0 9.0 0.00 0.00 0.00 92 1020.7
20190115231306 27 228 1.0 5.0 0.00 0.00 0.00 92 1020.7
20190115230806 27 227 3.0 6.0 0.00 0.00 0.00 91 1020.5
20190115230306 27 229 2.0 5.0 0.00 0.00 0.00 91 1020.5
20190115225807 27 234 2.0 3.0 0.00 0.00 0.00 91 1020.7
20190115225306 27 236 1.0 3.0 0.00 0.00 0.00 91 1020.6
20190115224806 27 236 1.0 3.0 0.00 0.00 0.00 91 1020.7
20190115224307 27 231 2.0 5.0 0.00 0.00 0.00 91 1020.7
20190115223806 27 229 2.0 5.0 0.00 0.00 0.00 91 1020.8
20190115223306 27 229 3.0 9.0 0.00 0.00 0.00 91 1020.9
20190115222807 27 236 2.0 5.0 0.00 0.00 0.00 91 1021.0
20190115222306 27 228 3.0 8.0 0.00 0.00 0.00 91 1021.0
20190115221806 27 237 2.0 7.0 0.00 0.00 0.00 91 1021.0
20190115221306 27 238 2.0 5.0 0.00 0.00 0.00 91 1021.1
20190115220808 27 232 2.0 5.0 0.00 0.00 0.00 91 1021.1
20190115220306 27 234 2.0 7.0 0.00 0.00 0.00 90 1021.2
20190115215806 27 258 3.0 3.0 0.00 0.00 0.00 90 1021.2
20190115215306 27 265 3.0 7.0 0.00 0.00 0.00 90 1021.3
20190115214806 27 232 3.0 6.0 0.00 0.00 0.00 90 1021.5
20190115214306 27 235 2.0 6.0 0.00 0.00 0.00 90 1021.6
20190115213806 27 240 1.0 3.0 0.00 0.00 0.00 90 1021.7
20190115213306 27 236 3.0 5.0 0.00 0.00 0.00 90 1021.7
20190115212806 27 229 2.0 5.0 0.00 0.00 0.00 90 1022.0
20190115212306 27 227 3.0 8.0 0.00 0.00 0.00 90 1022.0
20190115211806 27 234 3.0 7.0 0.00 0.00 0.00 90 1022.0
20190115211306 27 229 0.0 3.0 0.00 0.00 0.00 90 1021.9
20190115210806 27 229 1.0 5.0 0.00 0.00 0.00 90 1021.8
20190115210306 27 230 2.0 5.0 0.00 0.00 0.00 90 1021.8
20190115205807 27 228 1.0 3.0 0.00 0.00 0.00 90 1022.1
20190115205306 27 228 2.0 5.0 0.00 0.00 0.00 90 1022.2
20190115204808 27 234 0.0 0.0 0.00 0.00 0.00 90 1022.2
20190115204306 27 234 0.0 1.0 0.00 0.00 0.00 90 1022.2
20190115203806 27 234 1.0 6.0 0.00 0.00 0.00 90 1022.2
20190115203306 27 250 1.0 3.0 0.00 0.00 0.00 90 1022.1
20190115202805 27 252 1.0 3.0 0.00 0.00 0.00 89 1022.2
20190115202306 27 253 1.0 3.0 0.00 0.00 0.00 89 1022.2
20190115201806 27 253 0.0 6.0 0.00 0.00 0.00 89 1022.1
20190115201306 27 244 1.0 3.0 0.00 0.00 0.00 89 1022.1
20190115200805 27 243 0.0 3.0 0.00 0.00 0.00 89 1022.0
20190115200305 27 244 2.0 5.0 0.00 0.00 0.00 89 1022.2
20190115195806 27 238 1.0 5.0 0.00 0.00 0.00 89 1022.1
20190115195306 27 234 0.0 5.0 0.00 0.00 0.00 89 1022.1
20190115194806 27 235 1.0 3.0 0.00 0.00 0.00 89 1022.2
20190115194310 27 245 1.0 2.0 0.00 0.00 0.00 89 1022.3
20190115193806 27 246 1.0 3.0 0.00 0.00 0.00 89 1022.3
20190115193306 27 236 0.0 3.0 0.00 0.00 0.00 89 1022.3
20190115192806 27 235 1.0 3.0 0.00 0.00 0.00 90 1022.4
20190115192306 27 234 1.0 3.0 0.00 0.00 0.00 90 1022.5
20190115191806 26 234 0.0 2.0 0.00 0.00 0.00 90 1022.4
20190115191306 26 239 1.0 5.0 0.00 0.00 0.00 90 1022.4
20190115190806 26 254 1.0 3.0 0.00 0.00 0.00 90 1022.5
20190115190308 26 255 2.0 3.0 0.00 0.00 0.00 90 1022.6
20190115185805 26 265 1.0 3.0 0.00 0.00 0.00 90 1022.7
20190115185306 26 265 2.0 3.0 0.00 0.00 0.00 90 1022.6
20190115184806 26 273 2.0 6.0 0.00 0.00 0.00 90 1022.8
20190115184305 26 259 2.0 6.0 0.00 0.00 0.00 90 1022.7
20190115183806 26 236 2.0 3.0 0.00 0.00 0.00 90 1022.7
20190115183305 26 236 1.0 3.0 0.00 0.00 0.00 90 1022.9
20190115182807 26 236 0.0 6.0 0.00 0.00 0.00 90 1023.1
20190115182306 26 237 2.0 6.0 0.00 0.00 0.00 90 1023.1
20190115181807 26 250 2.0 3.0 0.00 0.00 0.00 91 1023.1
20190115181306 26 253 1.0 3.0 0.00 0.00 0.00 91 1023.2
20190115180805 26 243 0.0 3.0 0.00 0.00 0.00 91 1023.3
20190115180306 26 256 1.0 5.0 0.00 0.00 0.00 91 1023.4
20190115175806 26 266 1.0 5.0 0.00 0.00 0.00 91 1023.4
20190115175306 26 234 1.0 6.0 0.00 0.00 0.00 91 1023.6
20190115174806 26 235 1.0 5.0 0.00 0.00 0.00 91 1023.8
20190115174306 26 234 1.0 5.0 0.00 0.00 0.00 91 1024.0
20190115173806 26 236 2.0 3.0 0.00 0.00 0.00 91 1024.1
20190115173306 26 234 2.0 5.0 0.00 0.00 0.00 92 1024.3
20190115172806 26 242 1.0 3.0 0.00 0.00 0.00 92 1024.3
20190115172306 26 242 1.0 3.0 0.00 0.00 0.00 92 1024.4
20190115171807 26 242 1.0 5.0 0.00 0.00 0.00 92 1024.6
20190115171308 26 234 1.0 3.0 0.00 0.00 0.00 92 1024.7
20190115170806 25 234 2.0 3.0 0.00 0.00 0.00 92 1024.8
20190115170305 25 234 1.0 3.0 0.00 0.00 0.00 92 1024.9
20190115165806 25 233 2.0 5.0 0.00 0.00 0.00 92 1025.0
20190115165305 25 239 2.0 6.0 0.00 0.00 0.00 92 1025.1
20190115164806 25 258 2.0 6.0 0.00 0.00 0.00 92 1025.1
20190115164308 25 271 1.0 3.0 0.00 0.00 0.00 92 1025.1
20190115163807 25 271 0.0 2.0 0.00 0.00 0.00 92 1025.1
20190115163306 25 271 0.0 2.0 0.00 0.00 0.00 92 1025.2
20190115162806 25 271 2.0 5.0 0.00 0.00 0.00 92 1025.3
20190115162306 25 266 2.0 3.0 0.00 0.00 0.00 92 1025.3
20190115161806 25 266 1.0 3.0 0.00 0.00 0.00 92 1025.3
20190115161306 25 266 0.0 0.0 0.00 0.00 0.00 92 1025.4
20190115160805 25 266 1.0 3.0 0.00 0.00 0.00 92 1025.4
20190115160306 25 266 1.0 3.0 0.00 0.00 0.00 92 1025.4
20190115155808 25 267 1.0 3.0 0.00 0.00 0.00 92 1025.4
20190115155305 25 268 1.0 3.0 0.00 0.00 0.00 92 1025.4
20190115154805 25 269 1.0 5.0 0.00 0.00 0.00 92 1025.4
20190115154306 25 269 0.0 0.0 0.00 0.00 0.00 92 1025.4
20190115153806 25 269 0.0 1.0 0.00 0.00 0.00 92 1025.4
20190115153305 25 269 0.0 2.0 0.00 0.00 0.00 92 1025.3
20190115152805 25 269 0.0 0.0 0.00 0.00 0.00 92 1025.3
20190115152305 25 269 0.0 0.0 0.00 0.00 0.00 92 1025.3
20190115151806 25 269 0.0 1.0 0.00 0.00 0.00 92 1025.1
20190115151306 25 269 0.0 0.0 0.00 0.00 0.00 92 1025.1
20190115150805 25 269 0.0 0.0 0.00 0.00 0.00 92 1025.1
20190115150306 25 269 0.0 0.0 0.00 0.00 0.00 92 1025.1
20190115145806 25 269 0.0 0.0 0.00 0.00 0.00 92 1025.0
20190115145305 25 269 0.0 0.0 0.00 0.00 0.00 92 1025.0
20190115144809 25 269 0.0 2.0 0.00 0.00 0.00 92 1024.9
20190115144305 25 269 0.0 1.0 0.00 0.00 0.00 92 1024.7
20190115143806 25 269 0.0 0.0 0.00 0.00 0.00 92 1024.7
20190115143305 25 269 0.0 0.0 0.00 0.00 0.00 92 1024.7
20190115142806 23 0 0.0 0.0 0.00 0.00 0.00 92 1024.8
20190115142305 23 0 0.0 0.0 0.00 0.00 0.00 92 1024.7
20190115141805 23 0 0.0 0.0 0.00 0.00 0.00 92 1024.7
20190115141306 23 0 0.0 0.0 0.00 0.00 0.00 92 1024.7
20190115140806 23 0 0.0 0.0 0.00 0.00 0.00 92 1024.7
20190115140306 23 0 0.0 0.0 0.00 0.00 0.00 92 1024.6
20190115135806 23 0 0.0 0.0 0.00 0.00 0.00 92 1024.6
20190115135306 23 0 0.0 0.0 0.00 0.00 0.00 92 1024.6
20190115134805 23 0 0.0 0.0 0.00 0.00 0.00 92 1024.7
20190115134305 23 0 0.0 0.0 0.00 0.00 0.00 92 1024.8
20190115133805 23 0 0.0 0.0 0.00 0.00 0.00 92 1024.9
20190115133308 23 0 0.0 0.0 0.00 0.00 0.00 92 1024.9
20190115132806 23 0 0.0 0.0 0.00 0.00 0.00 92 1024.8
20190115132306 23 0 0.0 0.0 0.00 0.00 0.00 92 1024.9
20190115131805 23 0 0.0 0.0 0.00 0.00 0.00 92 1024.9
20190115131305 23 0 0.0 0.0 0.00 0.00 0.00 92 1024.8
20190115130806 23 0 0.0 0.0 0.00 0.00 0.00 92 1024.8
20190115130306 23 0 0.0 0.0 0.00 0.00 0.00 92 1024.9
20190115125805 23 0 0.0 0.0 0.00 0.00 0.00 92 1024.8
20190115125307 23 0 0.0 0.0 0.00 0.00 0.00 92 1024.8
20190115124806 23 0 0.0 0.0 0.00 0.00 0.00 92 1024.9
20190115124306 23 0 0.0 0.0 0.00 0.00 0.00 92 1024.9
20190115123806 23 0 0.0 0.0 0.00 0.00 0.00 92 1024.9
20190115123305 23 0 0.0 0.0 0.00 0.00 0.00 92 1025.0
20190115122805 23 0 0.0 0.0 0.00 0.00 0.00 92 1024.9
20190115122306 23 0 0.0 0.0 0.00 0.00 0.00 92 1024.9
20190115121805 23 0 0.0 0.0 0.00 0.00 0.00 92 1025.0
20190115121305 23 0 0.0 0.0 0.00 0.00 0.00 92 1024.9
20190115120805 23 0 0.0 0.0 0.00 0.00 0.00 92 1025.1
20190115120308 23 0 0.0 0.0 0.00 0.00 0.00 92 1025.0
20190115115805 23 0 0.0 0.0 0.00 0.00 0.00 92 1025.1
20190115115306 23 0 0.0 0.0 0.00 0.00 0.00 92 1025.1
20190115114805 23 1 0.0 0.0 0.00 0.00 0.00 92 1025.0
20190115114305 23 259 0.0 0.0 0.00 0.00 0.00 92 1025.1
20190115113806 23 259 0.0 0.0 0.00 0.00 0.00 92 1025.2
20190115113305 23 259 0.0 0.0 0.00 0.00 0.00 92 1025.2
20190115112805 23 259 0.0 0.0 0.00 0.00 0.00 92 1025.2
20190115112305 23 259 0.0 0.0 0.00 0.00 0.00 92 1025.1
20190115111805 23 259 0.0 0.0 0.00 0.00 0.00 92 1025.1
20190115111306 23 259 0.0 0.0 0.00 0.00 0.00 92 1025.1
20190115110805 23 259 0.0 0.0 0.00 0.00 0.00 92 1025.1
20190115110306 23 259 0.0 0.0 0.00 0.00 0.00 92 1025.0
20190115105805 23 259 0.0 0.0 0.00 0.00 0.00 92 1025.0
20190115105306 23 259 0.0 0.0 0.00 0.00 0.00 92 1025.1
20190115104805 23 259 0.0 2.0 0.00 0.00 0.00 92 1025.0
20190115104305 23 259 0.0 2.0 0.00 0.00 0.00 92 1025.1
20190115103806 23 259 0.0 2.0 0.00 0.00 0.00 92 1025.1
20190115103306 23 259 0.0 0.0 0.00 0.00 0.00 92 1025.1
20190115102806 23 259 0.0 0.0 0.00 0.00 0.00 92 1025.2
20190115102306 23 259 0.0 0.0 0.00 0.00 0.00 92 1025.2
20190115101805 23 259 0.0 0.0 0.00 0.00 0.00 92 1025.2
20190115101305 23 259 0.0 0.0 0.00 0.00 0.00 92 1025.3
20190115100805 23 259 0.0 0.0 0.00 0.00 0.00 92 1025.3
20190115100306 23 259 0.0 0.0 0.00 0.00 0.00 92 1025.4
20190115095805 22 259 0.0 0.0 0.00 0.00 0.00 92 1025.5
20190115095306 22 259 0.0 2.0 0.00 0.00 0.00 92 1025.5
20190115094805 22 259 0.0 0.0 0.00 0.00 0.00 92 1025.6
20190115094306 22 259 0.0 0.0 0.00 0.00 0.00 92 1025.7
20190115093805 22 259 0.0 0.0 0.00 0.00 0.00 92 1025.7
20190115093305 22 259 0.0 0.0 0.00 0.00 0.00 92 1025.7
20190115092806 22 259 0.0 0.0 0.00 0.00 0.00 92 1025.7
20190115092306 22 259 0.0 0.0 0.00 0.00 0.00 92 1025.7
20190115091805 22 259 0.0 1.0 0.00 0.00 0.00 92 1025.8
20190115091306 22 259 0.0 0.0 0.00 0.00 0.00 92 1025.7
20190115090805 22 259 0.0 0.0 0.00 0.00 0.00 92 1025.7
20190115090306 22 259 0.0 3.0 0.00 0.00 0.00 92 1025.7
20190115085806 22 259 1.0 2.0 0.00 0.00 0.00 92 1025.6
20190115085306 22 259 0.0 3.0 0.00 0.00 0.00 92 1025.7
20190115084805 22 280 0.0 9.0 0.00 0.00 0.00 92 1025.9
20190115084305 22 281 0.0 3.0 0.00 0.00 0.00 92 1025.9
20190115083806 22 285 0.0 1.0 0.00 0.00 0.00 92 1026.0
20190115083305 22 285 0.0 3.0 0.00 0.00 0.00 92 1026.0
20190115082805 21 285 1.0 3.0 0.00 0.00 0.00 92 1026.0
20190115082306 21 286 0.0 2.0 0.00 0.00 0.00 92 1026.0
20190115081805 21 286 0.0 3.0 0.00 0.00 0.00 92 1026.1
20190115081306 21 262 0.0 2.0 0.00 0.00 0.00 92 1026.1
20190115080805 21 261 1.0 3.0 0.00 0.00 0.00 92 1026.0
20190115080305 21 262 0.0 1.0 0.00 0.00 0.00 92 1026.1
20190115075805 21 262 0.0 2.0 0.00 0.00 0.00 92 1026.1
20190115075306 21 262 0.0 3.0 0.00 0.00 0.00 92 1026.1
20190115074805 21 256 0.0 3.0 0.00 0.00 0.00 92 1026.0
20190115074306 21 256 0.0 2.0 0.00 0.00 0.00 92 1026.0
20190115073806 21 256 0.0 2.0 0.00 0.00 0.00 92 1026.0
20190115073305 21 256 0.0 3.0 0.00 0.00 0.00 92 1025.9
20190115072805 21 248 0.0 0.0 0.00 0.00 0.00 92 1026.0
20190115072306 21 248 0.0 3.0 0.00 0.00 0.00 92 1025.9
20190115071805 21 249 1.0 3.0 0.00 0.00 0.00 92 1025.9
20190115071305 21 270 0.0 5.0 0.00 0.00 0.00 92 1025.8
20190115070805 21 272 1.0 3.0 0.00 0.00 0.00 92 1025.9
20190115070305 21 267 1.0 2.0 0.00 0.00 0.00 92 1026.0
20190115065805 21 267 0.0 2.0 0.00 0.00 0.00 92 1026.0
20190115065305 21 266 1.0 7.0 0.00 0.00 0.00 92 1026.0
20190115064805 21 266 0.0 0.0 0.00 0.00 0.00 92 1025.8
20190115064305 21 266 0.0 0.0 0.00 0.00 0.00 92 1025.7
20190115063805 21 266 0.0 0.0 0.00 0.00 0.00 92 1025.6
20190115063305 21 266 0.0 0.0 0.00 0.00 0.00 92 1025.6
20190115062806 21 266 1.0 3.0 0.00 0.00 0.00 92 1025.8
20190115062305 21 265 0.0 3.0 0.00 0.00 0.00 92 1025.9
20190115061805 21 266 1.0 3.0 0.00 0.00 0.00 91 1026.0
20190115061306 21 267 0.0 2.0 0.00 0.00 0.00 91 1026.1
20190115060805 21 267 1.0 3.0 0.00 0.00 0.00 91 1026.1
20190115060306 21 267 0.0 5.0 0.00 0.00 0.00 91 1026.1
20190115055806 21 266 0.0 1.0 0.00 0.00 0.00 91 1026.1
20190115055305 21 266 1.0 2.0 0.00 0.00 0.00 91 1026.1
20190115054805 21 266 0.0 0.0 0.00 0.00 0.00 91 1026.2
20190115054305 21 266 0.0 3.0 0.00 0.00 0.00 91 1026.2
20190115053805 21 266 0.0 1.0 0.00 0.00 0.00 91 1026.3
20190115053306 21 266 0.0 2.0 0.00 0.00 0.00 91 1026.5
20190115052806 21 269 1.0 7.0 0.00 0.00 0.00 91 1026.5
20190115052305 21 253 1.0 7.0 0.00 0.00 0.00 91 1026.5
20190115051805 21 252 1.0 3.0 0.00 0.00 0.00 91 1026.4
20190115051306 21 252 0.0 3.0 0.00 0.00 0.00 91 1026.4
20190115050805 21 252 0.0 2.0 0.00 0.00 0.00 91 1026.3
20190115050305 21 252 1.0 3.0 0.00 0.00 0.00 91 1026.4
20190115045805 21 252 1.0 3.0 0.00 0.00 0.00 91 1026.5
20190115045305 21 252 0.0 2.0 0.00 0.00 0.00 91 1026.6
20190115044806 21 252 1.0 3.0 0.00 0.00 0.00 91 1026.5
20190115044305 21 252 1.0 3.0 0.00 0.00 0.00 91 1026.6
20190115043806 21 254 1.0 3.0 0.00 0.00 0.00 91 1026.5
20190115043306 21 253 1.0 3.0 0.00 0.00 0.00 91 1026.6
20190115042806 21 254 1.0 3.0 0.00 0.00 0.00 91 1026.6
20190115042306 21 254 0.0 2.0 0.00 0.00 0.00 91 1026.6
20190115041805 21 254 0.0 2.0 0.00 0.00 0.00 91 1026.6
20190115041305 21 254 1.0 3.0 0.00 0.00 0.00 91 1026.7
20190115040805 22 254 0.0 3.0 0.00 0.00 0.00 91 1026.8
20190115040305 22 252 0.0 7.0 0.00 0.00 0.00 91 1026.7
20190115035805 22 260 0.0 3.0 0.00 0.00 0.00 91 1026.8
20190115035305 22 261 0.0 3.0 0.00 0.00 0.00 91 1026.8